Time;durP1;ratioP1;P1;durP2;ratioP2;P2;SDS_P1;SDS_P2;PMS_P1;PMS_P2;Temp;Humidity;BMP_temperature;BMP_pressure;BME280_temperature;BME280_humidity;BME280_pressure;Samples;Min_cycle;Max_cycle;Signal;HPM_P1;HPM_P2
2023/12/16 00:03:04;;;;;;;4.13;2.37;;;;;;;17.54;55.77;98800.84;10410904;28;20034;-30
2023/12/16 00:08:04;;;;;;;8.82;2.72;;;;;;;17.52;55.88;98814.28;10408264;28;20075;-30
2023/12/16 00:13:05;;;;;;;3.43;2.37;;;;;;;17.53;55.56;98805.84;10406444;28;20029;-29
2023/12/16 00:18:06;;;;;;;4.72;2.17;;;;;;;17.52;55.63;98783.88;10408194;28;20041;-30
2023/12/16 00:23:07;;;;;;;3.57;2.13;;;;;;;17.56;55.39;98796.69;10405857;28;20480;-30
2023/12/16 00:28:08;;;;;;;3.30;2.20;;;;;;;17.58;55.35;98799.31;10403626;28;20037;-30
2023/12/16 00:33:08;;;;;;;5.03;2.15;;;;;;;17.55;55.40;98787.38;10401176;28;20045;-31
2023/12/16 00:38:09;;;;;;;5.30;2.23;;;;;;;17.55;55.35;98816.91;10406471;28;20124;-31
2023/12/16 00:43:12;;;;;;;3.37;1.77;;;;;;;17.55;55.60;98832.09;10405161;28;20307;-31
2023/12/16 00:48:12;;;;;;;2.38;1.85;;;;;;;17.57;55.42;98825.44;10406322;28;20110;-30
2023/12/16 00:53:12;;;;;;;2.70;1.63;;;;;;;17.52;55.39;98835.41;10407158;28;20116;-30
2023/12/16 00:58:13;;;;;;;4.07;2.17;;;;;;;17.53;55.37;98874.25;10398329;28;20041;-30
2023/12/16 01:03:13;;;;;;;2.20;1.90;;;;;;;17.54;55.48;98870.91;10398431;28;20491;-31
2023/12/16 01:08:15;;;;;;;3.08;1.85;;;;;;;17.52;55.69;98849.72;10406032;28;20044;-30
2023/12/16 01:13:16;;;;;;;2.22;1.83;;;;;;;17.49;55.66;98836.97;10404504;28;20400;-30
2023/12/16 01:18:16;;;;;;;2.00;1.43;;;;;;;17.47;55.85;98825.88;10400369;28;20041;-29
2023/12/16 01:23:16;;;;;;;2.50;1.40;;;;;;;17.54;55.05;98830.38;10407571;28;20646;-30
2023/12/16 01:28:17;;;;;;;2.77;1.50;;;;;;;17.49;55.72;98836.97;10398703;28;20303;-30
2023/12/16 01:33:17;;;;;;;2.10;1.20;;;;;;;17.49;55.51;98834.44;10404601;28;20498;-30
2023/12/16 01:38:17;;;;;;;2.47;1.60;;;;;;;17.50;55.53;98828.56;10405691;28;20040;-30
2023/12/16 01:43:18;;;;;;;5.43;2.03;;;;;;;17.44;56.04;98839.31;10402908;28;20363;-31
2023/12/16 01:48:18;;;;;;;2.17;1.40;;;;;;;17.41;55.95;98849.31;10404841;28;20402;-30
2023/12/16 01:53:19;;;;;;;2.07;1.30;;;;;;;17.38;55.72;98853.41;10405939;28;20300;-30
2023/12/16 01:58:20;;;;;;;2.28;1.70;;;;;;;17.33;55.96;98849.81;10398528;28;20033;-30
2023/12/16 02:03:22;;;;;;;2.95;1.42;;;;;;;17.41;55.95;98858.59;10401616;28;20037;-30
2023/12/16 02:08:23;;;;;;;2.92;1.85;;;;;;;17.36;56.29;98865.13;10405553;28;20041;-30
2023/12/16 02:13:24;;;;;;;1.80;1.20;;;;;;;17.37;56.54;98852.56;10401271;28;20053;-30
2023/12/16 02:18:24;;;;;;;2.35;1.23;;;;;;;17.36;56.13;98857.53;10405075;28;20299;-30
2023/12/16 02:23:24;;;;;;;2.27;1.50;;;;;;;17.30;56.12;98845.50;10401140;28;20041;-30
2023/12/16 02:28:25;;;;;;;2.60;1.10;;;;;;;17.35;55.59;98848.19;10400998;28;20044;-30
2023/12/16 02:33:25;;;;;;;2.03;1.33;;;;;;;17.31;55.92;98852.28;10402727;28;20037;-30
2023/12/16 02:38:25;;;;;;;3.13;1.10;;;;;;;17.31;55.87;98857.34;10404247;28;20079;-30
2023/12/16 02:43:25;;;;;;;2.90;1.60;;;;;;;17.32;55.61;98850.63;10396878;28;20056;-30
2023/12/16 02:48:26;;;;;;;2.13;1.40;;;;;;;17.34;55.57;98841.41;10400366;28;20511;-32
2023/12/16 02:53:27;;;;;;;1.47;1.17;;;;;;;17.35;56.11;98843.13;10394017;28;20034;-30
2023/12/16 02:58:27;;;;;;;2.28;1.25;;;;;;;17.33;55.89;98837.16;10395448;28;20041;-30
2023/12/16 03:03:27;;;;;;;3.37;1.53;;;;;;;17.32;55.81;98843.88;10399893;28;20044;-29
2023/12/16 03:08:28;;;;;;;1.53;0.90;;;;;;;17.34;55.72;98856.59;10399457;28;20389;-30
2023/12/16 03:13:28;;;;;;;2.63;1.40;;;;;;;17.33;55.63;98862.47;10402777;28;20041;-30
2023/12/16 03:18:29;;;;;;;1.75;1.13;;;;;;;17.38;55.68;98861.00;10412181;28;20119;-30
2023/12/16 03:23:29;;;;;;;1.17;0.73;;;;;;;17.39;55.38;98866.13;10405834;28;20404;-30
2023/12/16 03:28:29;;;;;;;1.53;1.00;;;;;;;17.41;55.50;98879.69;10407312;28;20045;-30
2023/12/16 03:33:30;;;;;;;2.13;0.90;;;;;;;17.39;55.58;98891.44;10407517;28;20120;-30
2023/12/16 03:38:31;;;;;;;1.83;1.33;;;;;;;17.41;55.31;98894.91;10407611;28;20092;-29
2023/12/16 03:43:31;;;;;;;1.55;0.95;;;;;;;17.45;55.01;98900.94;10407901;28;20072;-29
2023/12/16 03:48:32;;;;;;;4.90;1.33;;;;;;;17.44;55.34;98901.75;10415055;28;20041;-31
2023/12/16 03:53:32;;;;;;;1.03;0.70;;;;;;;17.38;55.33;98901.50;10405754;28;20389;-30
2023/12/16 03:58:32;;;;;;;1.27;0.90;;;;;;;17.40;54.98;98910.06;10412525;28;20491;-29
2023/12/16 04:03:33;;;;;;;1.23;1.10;;;;;;;17.39;55.68;98896.50;10413509;28;20357;-30
2023/12/16 04:08:33;;;;;;;0.80;0.60;;;;;;;17.39;55.36;98885.50;10407798;28;20044;-32
2023/12/16 04:13:36;;;;;;;2.93;1.43;;;;;;;17.39;55.51;98888.03;10413015;28;20455;-30
2023/12/16 04:18:37;;;;;;;1.77;1.13;;;;;;;17.41;55.09;98878.84;10401930;28;20109;-30
2023/12/16 04:23:37;;;;;;;2.77;1.10;;;;;;;17.35;55.47;98878.56;10403657;28;20492;-31
2023/12/16 04:28:37;;;;;;;1.13;0.82;;;;;;;17.36;55.48;98885.41;10412045;28;20093;-30
2023/12/16 04:33:38;;;;;;;1.93;0.77;;;;;;;17.38;55.45;98906.56;10408509;28;20041;-30
2023/12/16 04:38:38;;;;;;;2.00;1.00;;;;;;;17.40;55.54;98907.53;10403914;28;20045;-30
2023/12/16 04:43:39;;;;;;;1.10;0.87;;;;;;;17.37;55.52;98913.31;10401671;28;20090;-30
2023/12/16 04:48:40;;;;;;;0.75;0.60;;;;;;;17.32;55.41;98901.25;10407952;28;20098;-31
2023/12/16 04:53:41;;;;;;;1.63;0.90;;;;;;;17.33;55.50;98905.50;10391114;28;20029;-30
2023/12/16 04:58:41;;;;;;;2.35;1.13;;;;;;;17.34;55.22;98897.13;10400249;28;20049;-32
2023/12/16 05:03:41;;;;;;;2.28;0.90;;;;;;;17.35;55.50;98907.31;10397131;28;20800;-35
2023/12/16 05:08:42;;;;;;;0.77;0.65;;;;;;;17.36;55.33;98906.53;10396491;28;20026;-32
2023/12/16 05:13:43;;;;;;;1.47;0.87;;;;;;;17.35;55.53;98914.91;10398717;28;20044;-31
2023/12/16 05:18:43;;;;;;;0.68;0.50;;;;;;;17.36;55.76;98905.66;10395558;28;20040;-30
2023/12/16 05:23:43;;;;;;;1.10;0.67;;;;;;;17.31;55.97;98899.53;10391079;28;20029;-30
2023/12/16 05:28:44;;;;;;;1.23;0.77;;;;;;;17.33;55.70;98895.38;10404823;28;20172;-30
2023/12/16 05:33:44;;;;;;;2.47;0.90;;;;;;;17.35;55.74;98886.19;10390295;28;20651;-30
2023/12/16 05:38:44;;;;;;;0.73;0.70;;;;;;;17.31;55.69;98886.88;10403654;28;20384;-31
2023/12/16 05:43:45;;;;;;;1.03;0.70;;;;;;;17.29;55.79;98894.41;10407552;28;20033;-30
2023/12/16 05:48:45;;;;;;;0.87;0.63;;;;;;;17.30;55.78;98911.31;10399329;28;20122;-31
2023/12/16 05:53:45;;;;;;;0.93;0.60;;;;;;;17.28;55.67;98912.06;10394549;28;20041;-30
2023/12/16 05:58:46;;;;;;;0.90;0.73;;;;;;;17.28;55.68;98909.53;10402408;28;20040;-31
2023/12/16 06:03:47;;;;;;;3.33;0.80;;;;;;;17.29;55.49;98904.53;10404318;28;20037;-32
2023/12/16 06:08:47;;;;;;;0.65;0.55;;;;;;;17.25;55.62;98906.88;10398589;28;20046;-30
2023/12/16 06:13:48;;;;;;;1.03;0.73;;;;;;;17.33;54.93;98910.59;10405362;28;20060;-31
2023/12/16 06:18:49;;;;;;;1.17;0.93;;;;;;;17.36;54.03;98916.66;10402449;28;20044;-30
2023/12/16 06:23:49;;;;;;;0.70;0.50;;;;;;;17.40;54.33;98912.59;10398641;28;20128;-30
2023/12/16 06:28:50;;;;;;;0.83;0.60;;;;;;;17.36;54.77;98910.72;10405135;28;20029;-30
2023/12/16 06:33:50;;;;;;;1.77;0.63;;;;;;;17.34;54.45;98907.25;10398369;28;20056;-31
2023/12/16 06:38:50;;;;;;;1.73;0.70;;;;;;;17.35;54.34;98914.91;10401506;28;20033;-30
2023/12/16 06:43:51;;;;;;;1.10;0.70;;;;;;;17.29;54.39;98913.78;10397385;28;20018;-30
2023/12/16 06:48:53;;;;;;;6.47;2.07;;;;;;;17.44;53.09;98899.22;10396953;28;20539;-29
2023/12/16 06:53:54;;;;;;;0.85;0.75;;;;;;;17.56;53.71;98907.31;10386541;28;20037;-31
2023/12/16 06:58:54;;;;;;;5.47;1.10;;;;;;;17.54;56.32;98906.34;10402047;28;20029;-30
2023/12/16 07:03:54;;;;;;;5.43;1.03;;;;;;;17.46;55.94;98907.72;10383981;28;20092;-29
2023/12/16 07:08:55;;;;;;;3.37;0.93;;;;;;;17.48;55.76;98921.34;10391986;28;20037;-31
2023/12/16 07:13:55;;;;;;;2.10;0.97;;;;;;;17.51;55.65;98926.50;10386286;28;20419;-30
2023/12/16 07:18:55;;;;;;;12.40;4.07;;;;;;;17.57;54.81;98939.44;10395851;28;20346;-30
2023/12/16 07:23:56;;;;;;;4.93;2.50;;;;;;;17.68;49.92;98941.53;10387798;28;20026;-31
2023/12/16 07:28:56;;;;;;;4.40;2.80;;;;;;;17.67;49.36;98931.38;10401302;28;20029;-30
2023/12/16 07:33:57;;;;;;;16.57;7.57;;;;;;;17.66;50.63;98945.69;10395491;28;20025;-30
2023/12/16 07:38:57;;;;;;;22.77;11.23;;;;;;;17.63;49.61;98947.25;10386021;28;20033;-30
2023/12/16 07:43:58;;;;;;;6.38;3.40;;;;;;;17.55;47.57;98948.59;10403684;28;20025;-30
2023/12/16 07:48:58;;;;;;;26.77;17.13;;;;;;;17.60;50.73;98944.59;10399590;28;20107;-29
2023/12/16 07:53:59;;;;;;;35.03;20.13;;;;;;;17.57;49.37;98952.09;10387089;28;20026;-30
2023/12/16 07:59:02;;;;;;;18.27;13.53;;;;;;;17.61;48.08;98957.34;10396002;28;20080;-32
2023/12/16 08:04:02;;;;;;;14.20;8.18;;;;;;;17.50;47.77;98956.03;10384552;28;20292;-30
2023/12/16 08:09:03;;;;;;;30.53;21.37;;;;;;;17.50;50.85;98960.25;10395699;28;20030;-30
2023/12/16 08:14:03;;;;;;;23.73;16.67;;;;;;;17.23;52.00;98964.19;10400692;28;20056;-33
2023/12/16 08:19:04;;;;;;;37.42;26.80;;;;;;;17.19;53.09;98967.38;10403547;28;20038;-30
2023/12/16 08:24:05;;;;;;;40.10;31.02;;;;;;;17.24;53.33;98970.97;10398745;28;20491;-30
2023/12/16 08:29:05;;;;;;;42.40;32.78;;;;;;;17.29;52.88;98969.47;10409401;28;20038;-31
2023/12/16 08:34:05;;;;;;;46.10;35.30;;;;;;;17.31;52.40;98970.44;10404863;28;20064;-29
2023/12/16 08:39:06;;;;;;;49.97;40.53;;;;;;;17.32;53.18;98972.16;10406331;28;20037;-30
2023/12/16 08:44:06;;;;;;;65.10;42.25;;;;;;;17.31;50.96;98985.63;10399818;28;20030;-32
2023/12/16 08:49:07;;;;;;;55.13;33.57;;;;;;;17.22;51.39;98987.75;10404172;28;20041;-31
2023/12/16 08:54:09;;;;;;;40.15;24.45;;;;;;;17.19;50.33;98993.59;10385045;28;20308;-31
2023/12/16 08:59:09;;;;;;;41.33;30.35;;;;;;;17.20;51.89;99004.56;10406472;28;20436;-32
2023/12/16 09:04:10;;;;;;;41.33;29.87;;;;;;;17.17;51.78;99009.50;10396788;28;20033;-30
2023/12/16 09:09:11;;;;;;;18.50;13.93;;;;;;;17.19;47.95;99008.78;10397421;28;20038;-31
2023/12/16 09:14:11;;;;;;;30.98;23.98;;;;;;;17.39;50.36;99007.06;10405485;28;20034;-29
2023/12/16 09:19:12;;;;;;;27.88;19.13;;;;;;;17.53;47.76;99011.00;10399055;28;20041;-29
2023/12/16 09:24:12;;;;;;;24.23;18.60;;;;;;;17.62;48.23;99011.38;10396899;28;20040;-31
2023/12/16 09:29:13;;;;;;;27.83;19.47;;;;;;;17.66;48.63;99021.69;10405523;28;20090;-29
2023/12/16 09:34:13;;;;;;;29.77;20.63;;;;;;;17.61;50.18;99022.31;10395948;28;20510;-29
2023/12/16 09:39:14;;;;;;;27.90;19.93;;;;;;;17.61;49.79;99004.59;10404979;28;20037;-29
2023/12/16 09:44:16;;;;;;;26.55;17.77;;;;;;;17.82;48.80;99016.41;10404376;28;20104;-28
2023/12/16 09:49:16;;;;;;;21.67;16.10;;;;;;;17.90;48.62;99009.13;10404880;28;20120;-30
2023/12/16 09:54:17;;;;;;;22.95;17.38;;;;;;;17.95;48.22;99005.09;10389480;28;20041;-30
2023/12/16 09:59:20;;;;;;;19.77;14.32;;;;;;;17.89;47.67;99002.31;10393111;28;20033;-30
2023/12/16 10:04:22;;;;;;;20.27;13.77;;;;;;;17.94;47.53;99000.81;10399976;28;20029;-29
2023/12/16 10:09:22;;;;;;;16.45;10.23;;;;;;;17.82;46.80;99000.38;10399648;28;20546;-29
2023/12/16 10:14:25;;;;;;;12.33;9.73;;;;;;;17.90;46.89;98999.84;10399342;28;20030;-29
2023/12/16 10:19:25;;;;;;;16.40;10.20;;;;;;;17.98;46.69;98988.31;10390360;28;20040;-30
2023/12/16 10:24:25;;;;;;;15.53;10.43;;;;;;;18.01;46.75;98987.59;10392836;28;20034;-29
2023/12/16 10:29:26;;;;;;;13.60;11.60;;;;;;;18.04;48.50;98991.09;10400740;28;20040;-29
2023/12/16 10:34:30;;;;;;;18.07;10.27;;;;;;;18.06;48.30;98983.53;10402780;28;20038;-29
2023/12/16 10:39:31;;;;;;;17.98;11.90;;;;;;;18.16;50.22;98985.63;10378572;28;20041;-29
2023/12/16 10:44:31;;;;;;;18.50;12.93;;;;;;;18.16;50.87;98978.03;10388475;28;20037;-30
2023/12/16 10:49:34;;;;;;;17.80;12.93;;;;;;;18.28;52.21;98978.47;10396435;28;20037;-29
2023/12/16 10:54:44;;;;;;;25.05;10.52;;;;;;;18.22;50.93;98978.22;10402236;28;20044;-29
2023/12/16 10:59:54;;;;;;;16.75;12.02;;;;;;;18.27;51.93;98964.06;10397644;28;20041;-29
2023/12/16 11:05:03;;;;;;;17.45;11.43;;;;;;;18.27;51.14;98951.38;10388101;28;20042;-30
2023/12/16 11:10:05;;;;;;;15.70;10.85;;;;;;;18.43;51.06;98966.38;10383193;28;20064;-30
2023/12/16 11:15:08;;;;;;;23.83;13.50;;;;;;;18.53;52.21;98968.41;10395405;28;20094;-31
2023/12/16 11:20:16;;;;;;;18.48;12.43;;;;;;;18.42;51.44;98969.72;10399111;28;20041;-30
2023/12/16 11:25:18;;;;;;;17.55;10.43;;;;;;;18.46;51.16;98958.84;10389491;28;20029;-30
2023/12/16 11:30:21;;;;;;;12.65;8.43;;;;;;;18.40;52.01;98958.66;10387151;28;20107;-29
2023/12/16 11:35:42;;;;;;;12.95;8.40;;;;;;;18.50;50.85;98951.41;10393627;28;20132;-29
2023/12/16 11:40:52;;;;;;;11.32;7.50;;;;;;;18.59;50.22;98940.75;10399869;28;20087;-30
2023/12/16 11:45:53;;;;;;;18.58;7.18;;;;;;;18.59;50.71;98948.34;10410972;28;20094;-29
2023/12/16 11:50:53;;;;;;;10.33;7.10;;;;;;;18.61;49.40;98950.13;10388276;28;20053;-30
2023/12/16 11:55:55;;;;;;;10.47;6.77;;;;;;;18.62;49.79;98945.91;10400088;28;20049;-29
2023/12/16 12:00:55;;;;;;;11.20;7.10;;;;;;;18.62;49.79;98930.69;10407266;28;20280;-29
2023/12/16 12:05:56;;;;;;;9.67;6.50;;;;;;;18.61;49.00;98923.88;10401306;28;20034;-31
2023/12/16 12:10:57;;;;;;;8.18;5.80;;;;;;;18.63;48.82;98901.97;10406474;28;20056;-30
2023/12/16 12:15:58;;;;;;;10.43;5.40;;;;;;;18.62;48.61;98906.19;10405060;28;20411;-29
2023/12/16 12:20:58;;;;;;;10.13;5.22;;;;;;;18.63;48.33;98896.88;10405585;28;20095;-31
2023/12/16 12:26:00;;;;;;;6.90;5.03;;;;;;;18.63;47.99;98892.69;10393461;28;20116;-30
2023/12/16 12:31:05;;;;;;;6.43;5.20;;;;;;;18.65;48.21;98890.19;10400573;28;20029;-29
2023/12/16 12:36:09;;;;;;;6.32;4.07;;;;;;;18.64;47.51;98880.84;10397404;28;20120;-30
2023/12/16 12:41:14;;;;;;;5.72;4.38;;;;;;;18.65;48.01;98890.19;10402225;28;20423;-30
2023/12/16 12:46:17;;;;;;;11.60;5.07;;;;;;;18.70;47.44;98878.53;10406178;28;20041;-30
2023/12/16 12:51:17;;;;;;;5.00;2.90;;;;;;;18.67;47.06;98868.28;10393576;28;20030;-31
2023/12/16 12:56:17;;;;;;;5.28;3.20;;;;;;;18.71;47.16;98863.34;10388529;28;20042;-31
2023/12/16 13:01:18;;;;;;;5.20;2.90;;;;;;;18.69;47.03;98866.66;10387421;28;20094;-31
2023/12/16 13:06:18;;;;;;;5.80;3.67;;;;;;;18.70;47.72;98863.28;10398465;28;20057;-30
2023/12/16 13:11:18;;;;;;;4.70;3.50;;;;;;;18.66;47.77;98862.31;10396595;28;20041;-29
2023/12/16 13:16:19;;;;;;;8.60;3.73;;;;;;;18.67;48.81;98858.13;10387349;28;20045;-30
2023/12/16 13:21:19;;;;;;;12.10;4.00;;;;;;;18.48;47.64;98860.84;10387882;28;20034;-30
2023/12/16 13:26:20;;;;;;;9.82;3.45;;;;;;;17.95;48.62;98853.91;10401802;28;20072;-30
2023/12/16 13:31:20;;;;;;;8.30;2.80;;;;;;;18.13;46.66;98848.59;10391605;28;20091;-29
2023/12/16 13:36:21;;;;;;;3.50;2.03;;;;;;;18.28;46.17;98839.88;10388739;28;20033;-31
2023/12/16 13:41:21;;;;;;;5.70;2.30;;;;;;;18.35;46.33;98843.50;10385171;28;20427;-29
2023/12/16 13:46:21;;;;;;;3.63;2.27;;;;;;;18.44;45.89;98844.69;10394743;28;20445;-32
2023/12/16 13:51:22;;;;;;;4.33;1.63;;;;;;;18.50;45.85;98838.94;10402533;28;20041;-30
2023/12/16 13:56:22;;;;;;;5.50;2.05;;;;;;;18.53;46.04;98823.81;10394782;28;20048;-29
2023/12/16 14:01:22;;;;;;;2.13;1.67;;;;;;;18.46;46.25;98834.56;10407430;28;20593;-29
2023/12/16 14:06:23;;;;;;;9.50;3.03;;;;;;;18.39;46.47;98825.03;10392794;28;20041;-29
2023/12/16 14:11:23;;;;;;;7.70;2.15;;;;;;;18.46;46.17;98827.84;10381088;28;20036;-29
2023/12/16 14:16:24;;;;;;;6.77;2.50;;;;;;;18.39;46.91;98830.09;10385529;28;20038;-30
2023/12/16 14:21:25;;;;;;;7.55;1.65;;;;;;;18.50;46.06;98823.72;10384660;28;20029;-29
2023/12/16 14:26:25;;;;;;;3.08;1.65;;;;;;;18.54;45.72;98806.13;10387487;28;20750;-30
2023/12/16 14:31:26;;;;;;;1.77;1.20;;;;;;;18.53;44.80;98803.53;10390796;28;20068;-31
2023/12/16 14:36:26;;;;;;;2.25;1.45;;;;;;;18.56;44.63;98803.59;10400220;28;20476;-29
2023/12/16 14:41:27;;;;;;;3.13;1.77;;;;;;;18.57;45.12;98815.50;10389703;28;20161;-29
2023/12/16 14:46:27;;;;;;;2.63;1.43;;;;;;;18.60;45.17;98835.91;10393074;28;20052;-29
2023/12/16 14:51:28;;;;;;;2.10;1.40;;;;;;;18.62;45.79;98829.19;10377947;28;20486;-30
2023/12/16 14:56:28;;;;;;;2.33;1.10;;;;;;;18.68;46.69;98826.88;10383089;28;20514;-30
2023/12/16 15:01:29;;;;;;;6.50;2.42;;;;;;;18.70;48.30;98822.69;10391757;28;20291;-29
2023/12/16 15:06:29;;;;;;;7.13;1.60;;;;;;;18.78;47.18;98841.56;10379832;28;20033;-30
2023/12/16 15:11:29;;;;;;;4.13;2.10;;;;;;;18.81;48.87;98849.28;10386509;28;20041;-29
2023/12/16 15:16:30;;;;;;;5.75;2.10;;;;;;;18.82;47.12;98853.56;10394419;28;20037;-30
2023/12/16 15:21:30;;;;;;;17.93;7.33;;;;;;;18.85;48.71;98853.66;10402131;28;20510;-29
2023/12/16 15:26:31;;;;;;;20.13;8.10;;;;;;;18.39;47.93;98830.09;10401356;28;20292;-29
2023/12/16 15:31:31;;;;;;;18.15;7.80;;;;;;;18.63;47.63;98838.53;10398047;28;20022;-29
2023/12/16 15:36:32;;;;;;;18.25;7.03;;;;;;;18.64;47.77;98818.28;10394726;28;20043;-33
2023/12/16 15:41:32;;;;;;;13.27;5.63;;;;;;;18.65;47.37;98826.75;10396282;28;20088;-30
2023/12/16 15:46:33;;;;;;;22.60;4.78;;;;;;;18.65;47.07;98819.13;10400245;28;20049;-30
2023/12/16 15:51:34;;;;;;;12.70;4.40;;;;;;;18.57;46.72;98810.44;10395033;28;20436;-30
2023/12/16 15:56:40;;;;;;;13.48;6.47;;;;;;;18.51;48.57;98795.84;10391801;28;20500;-30
2023/12/16 16:01:41;;;;;;;11.35;3.90;;;;;;;18.58;46.33;98799.47;10390014;28;20041;-29
2023/12/16 16:06:41;;;;;;;9.93;4.18;;;;;;;18.59;46.73;98812.19;10390591;28;20040;-30
2023/12/16 16:11:42;;;;;;;6.73;3.60;;;;;;;18.61;47.79;98812.25;10395242;28;20029;-30
2023/12/16 16:16:42;;;;;;;14.33;4.47;;;;;;;18.59;48.03;98804.56;10388521;28;20734;-29
2023/12/16 16:21:42;;;;;;;6.67;3.50;;;;;;;18.61;46.86;98802.09;10386974;28;20347;-31
2023/12/16 16:26:43;;;;;;;7.47;3.60;;;;;;;18.63;46.52;98796.28;10380626;28;20041;-30
2023/12/16 16:31:43;;;;;;;12.53;3.50;;;;;;;18.65;46.74;98802.25;10391806;28;20390;-30
2023/12/16 16:36:43;;;;;;;6.67;3.50;;;;;;;18.66;45.82;98809.03;10396489;28;20797;-31
2023/12/16 16:41:44;;;;;;;6.60;2.93;;;;;;;18.61;45.71;98812.25;10385041;28;20044;-30
2023/12/16 16:46:44;;;;;;;6.23;2.93;;;;;;;18.67;45.66;98812.44;10394854;28;20104;-30
2023/12/16 16:51:44;;;;;;;6.47;3.20;;;;;;;18.54;46.03;98784.94;10385471;28;20033;-31
2023/12/16 16:56:45;;;;;;;6.20;2.83;;;;;;;18.69;45.58;98810.81;10385351;28;20395;-32
2023/12/16 17:01:45;;;;;;;4.23;2.67;;;;;;;18.69;45.07;98819.31;10393103;28;20476;-30
2023/12/16 17:06:46;;;;;;;7.30;2.63;;;;;;;18.66;46.18;98826.81;10383649;28;20033;-30
2023/12/16 17:11:46;;;;;;;4.57;2.40;;;;;;;18.65;45.49;98824.22;10389252;28;20617;-30
2023/12/16 17:16:46;;;;;;;3.87;2.40;;;;;;;18.69;44.86;98833.66;10387370;28;20129;-29
2023/12/16 17:21:47;;;;;;;7.33;2.33;;;;;;;18.69;44.54;98837.06;10392223;28;20030;-31
2023/12/16 17:26:48;;;;;;;7.25;2.45;;;;;;;18.71;44.95;98834.56;10392205;28;20060;-30
2023/12/16 17:31:48;;;;;;;4.27;1.93;;;;;;;18.73;44.92;98832.94;10392164;28;20755;-34
2023/12/16 17:36:49;;;;;;;8.35;2.70;;;;;;;18.72;44.75;98827.00;10389990;28;20038;-31
2023/12/16 17:41:49;;;;;;;4.90;2.80;;;;;;;18.73;44.74;98817.69;10392248;28;20040;-31
2023/12/16 17:46:49;;;;;;;6.83;2.30;;;;;;;18.72;44.74;98798.22;10392414;28;20304;-30
2023/12/16 17:51:51;;;;;;;6.53;2.20;;;;;;;18.73;44.14;98794.88;10396776;28;20423;-30
2023/12/16 17:56:51;;;;;;;5.10;2.55;;;;;;;18.71;43.77;98789.75;10395793;28;20033;-30
2023/12/16 18:01:51;;;;;;;3.13;2.40;;;;;;;18.72;43.68;98808.38;10391857;28;20029;-31
2023/12/16 18:06:52;;;;;;;7.97;3.70;;;;;;;18.70;45.97;98813.41;10384767;28;20819;-31
2023/12/16 18:11:53;;;;;;;7.28;2.72;;;;;;;18.71;45.57;98844.72;10383859;28;20041;-30
2023/12/16 18:16:53;;;;;;;5.87;2.83;;;;;;;18.70;45.21;98840.47;10400836;28;20042;-30
2023/12/16 18:21:54;;;;;;;6.13;3.45;;;;;;;18.71;44.33;98834.56;10394800;28;20033;-30
2023/12/16 18:26:54;;;;;;;3.87;2.40;;;;;;;18.72;44.31;98841.34;10395506;28;20053;-31
2023/12/16 18:31:54;;;;;;;6.50;2.93;;;;;;;18.75;44.54;98846.56;10376107;28;20045;-30
2023/12/16 18:36:55;;;;;;;4.73;2.20;;;;;;;18.72;43.84;98846.44;10390783;28;20304;-29
2023/12/16 18:41:55;;;;;;;3.50;2.30;;;;;;;18.76;44.58;98853.34;10382314;28;21736;-30
2023/12/16 18:46:56;;;;;;;4.47;2.50;;;;;;;18.80;44.79;98850.97;10389280;28;20492;-31
2023/12/16 18:51:56;;;;;;;6.57;2.40;;;;;;;18.40;44.25;98852.13;10392454;28;20492;-30
2023/12/16 18:56:57;;;;;;;3.50;1.80;;;;;;;18.63;44.80;98853.75;10384787;28;20033;-30
2023/12/16 19:01:57;;;;;;;7.43;2.20;;;;;;;18.64;43.55;98861.41;10393724;28;20098;-30
2023/12/16 19:06:57;;;;;;;16.10;2.60;;;;;;;18.46;44.06;98858.28;10399044;28;20060;-30
2023/12/16 19:11:58;;;;;;;4.03;1.43;;;;;;;18.36;42.47;98857.91;10392448;28;20061;-30
2023/12/16 19:16:58;;;;;;;4.97;2.10;;;;;;;18.09;41.69;98855.22;10403170;28;20029;-30
2023/12/16 19:21:58;;;;;;;4.23;1.87;;;;;;;17.86;40.91;98860.28;10400677;28;20030;-30
2023/12/16 19:26:59;;;;;;;3.95;2.17;;;;;;;17.57;39.71;98866.81;10397819;28;20037;-30
2023/12/16 19:31:59;;;;;;;2.67;1.83;;;;;;;17.30;39.58;98839.53;10403775;28;20499;-29
2023/12/16 19:37:00;;;;;;;2.47;1.50;;;;;;;17.04;38.88;98875.66;10391256;28;20133;-30
2023/12/16 19:42:00;;;;;;;2.50;1.65;;;;;;;17.59;37.79;98869.41;10395681;28;20284;-33
2023/12/16 19:47:01;;;;;;;2.03;1.73;;;;;;;17.84;37.31;98870.38;10403756;28;20029;-30
2023/12/16 19:52:01;;;;;;;2.13;1.80;;;;;;;17.96;38.05;98872.47;10393292;28;20323;-30
2023/12/16 19:57:02;;;;;;;2.67;1.88;;;;;;;18.01;38.90;98863.38;10396312;28;20025;-32
2023/12/16 20:02:03;;;;;;;2.15;1.88;;;;;;;18.00;39.34;98861.66;10399886;28;20037;-30
2023/12/16 20:07:04;;;;;;;4.45;2.28;;;;;;;17.97;39.19;98856.47;10409117;28;20052;-30
2023/12/16 20:12:06;;;;;;;2.72;2.10;;;;;;;17.92;37.99;98856.28;10398687;28;20072;-30
2023/12/16 20:17:07;;;;;;;2.75;2.25;;;;;;;17.90;37.65;98846.94;10407140;28;20029;-30
2023/12/16 20:22:07;;;;;;;2.53;1.85;;;;;;;17.95;37.79;98860.63;10409606;28;20033;-31
2023/12/16 20:27:08;;;;;;;2.72;1.83;;;;;;;17.94;37.59;98869.03;10403857;28;20091;-30
2023/12/16 20:32:08;;;;;;;3.17;2.17;;;;;;;17.88;37.82;98863.72;10406214;28;20442;-30
2023/12/16 20:37:09;;;;;;;3.93;2.53;;;;;;;17.89;37.51;98875.59;10409161;28;20656;-30
2023/12/16 20:42:11;;;;;;;3.42;2.15;;;;;;;17.85;37.49;98881.38;10405819;28;20296;-30
2023/12/16 20:47:11;;;;;;;2.67;2.00;;;;;;;17.83;37.34;98876.25;10408897;28;20102;-30
2023/12/16 20:52:12;;;;;;;2.43;1.70;;;;;;;17.81;37.60;98884.59;10404331;28;20041;-30
2023/12/16 20:57:12;;;;;;;2.07;1.57;;;;;;;17.80;37.61;98893.00;10399509;28;20037;-30
2023/12/16 21:02:12;;;;;;;1.52;1.42;;;;;;;17.81;37.90;98894.72;10406654;28;20037;-31
2023/12/16 21:07:14;;;;;;;1.73;1.50;;;;;;;17.74;39.22;98887.72;10403901;28;20094;-30
2023/12/16 21:12:15;;;;;;;3.97;1.65;;;;;;;16.94;38.47;98899.75;10398455;28;20068;-31
2023/12/16 21:17:15;;;;;;;1.88;1.60;;;;;;;17.40;37.59;98887.25;10407508;28;20041;-30
2023/12/16 21:22:16;;;;;;;1.77;1.50;;;;;;;17.55;37.53;98877.69;10401926;28;20029;-30
2023/12/16 21:27:16;;;;;;;2.00;1.80;;;;;;;17.61;37.96;98872.88;10401074;28;20455;-30
2023/12/16 21:32:17;;;;;;;2.95;2.13;;;;;;;17.61;38.57;98880.47;10404851;28;20064;-29
2023/12/16 21:37:17;;;;;;;2.78;2.17;;;;;;;17.63;38.70;98879.72;10400998;28;20099;-30
2023/12/16 21:42:18;;;;;;;1.30;1.20;;;;;;;17.66;38.22;98866.31;10397308;28;20033;-32
2023/12/16 21:47:18;;;;;;;2.45;1.50;;;;;;;17.52;38.66;98824.41;10401721;28;20094;-30
2023/12/16 21:52:18;;;;;;;3.33;1.40;;;;;;;17.59;38.82;98839.88;10398191;28;20448;-30
2023/12/16 21:57:19;;;;;;;2.20;1.57;;;;;;;17.58;38.49;98839.84;10388873;28;20041;-30
2023/12/16 22:02:20;;;;;;;2.50;1.23;;;;;;;17.55;38.69;98834.63;10396159;28;20554;-30
2023/12/16 22:07:20;;;;;;;1.00;0.90;;;;;;;17.54;39.05;98840.50;10395675;28;20049;-30
2023/12/16 22:12:21;;;;;;;0.83;0.73;;;;;;;17.42;38.68;98840.91;10394582;28;20035;-30
2023/12/16 22:17:21;;;;;;;1.70;1.10;;;;;;;17.28;38.73;98846.22;10396555;28;20300;-29
2023/12/16 22:22:24;;;;;;;1.73;1.20;;;;;;;17.00;38.50;98846.81;10404764;28;20033;-30
2023/12/16 22:27:24;;;;;;;2.08;1.33;;;;;;;17.08;38.29;98859.78;10402405;28;20522;-30
2023/12/16 22:32:25;;;;;;;1.52;0.98;;;;;;;17.10;38.46;98861.59;10396296;28;20053;-31
2023/12/16 22:37:26;;;;;;;2.77;1.20;;;;;;;17.17;38.32;98853.41;10392313;28;20053;-30
2023/12/16 22:42:26;;;;;;;3.65;1.20;;;;;;;17.24;38.40;98862.13;10404420;28;20785;-29
2023/12/16 22:47:26;;;;;;;2.07;1.30;;;;;;;17.31;38.83;98852.28;10402637;28;20041;-30
2023/12/16 22:52:27;;;;;;;1.57;1.17;;;;;;;17.28;38.83;98831.91;10401334;28;20037;-30
2023/12/16 22:57:27;;;;;;;1.30;1.20;;;;;;;17.38;39.09;98835.66;10403059;28;20440;-30
2023/12/16 23:02:27;;;;;;;1.03;0.90;;;;;;;17.39;38.91;98830.69;10402202;28;20034;-30
2023/12/16 23:07:28;;;;;;;2.30;0.87;;;;;;;17.40;39.09;98817.19;10403934;28;20546;-30
2023/12/16 23:12:29;;;;;;;1.67;1.03;;;;;;;17.39;39.15;98812.94;10398794;28;20203;-30